Time;durP1;ratioP1;P1;durP2;ratioP2;P2;SDS_P1;SDS_P2;PMS_P1;PMS_P2;Temp;Humidity;BMP_temperature;BMP_pressure;BME280_temperature;BME280_humidity;BME280_pressure;Samples;Min_cycle;Max_cycle;Signal;HPM_P1;HPM_P2
2021/07/03 00:00:25;;;;;;;13.68;6.10;;;;;;;;;;356101;113;1961936;-71
2021/07/03 00:01:30;;;;;;;12.37;6.12;;;;;;;;;;354526;112;1961991;-71
2021/07/03 00:02:35;;;;;;;10.12;5.98;;;;;;;;;;353124;114;1962001;-71
2021/07/03 00:03:41;;;;;;;11.48;6.24;;;;;;;;;;353396;112;1962044;-72
2021/07/03 00:04:53;;;;;;;13.89;6.58;;;;;;;;;;393681;104;1987064;-71
2021/07/03 00:05:58;;;;;;;11.77;5.71;;;;;;;;;;374365;107;1969825;-71
2021/07/03 00:07:03;;;;;;;11.69;5.80;;;;;;;;;;377859;107;1962031;-70
2021/07/03 00:08:08;;;;;;;11.95;5.74;;;;;;;;;;376576;106;1962000;-70
2021/07/03 00:09:14;;;;;;;9.90;5.79;;;;;;;;;;369449;107;1962011;-70
2021/07/03 00:10:22;;;;;;;10.29;5.69;;;;;;;;;;370111;107;1961977;-69
2021/07/03 00:11:33;;;;;;;9.74;5.76;;;;;;;;;;389431;104;1964924;-70
2021/07/03 00:12:38;;;;;;;8.59;5.31;;;;;;;;;;339179;105;2099040;-71
2021/07/03 00:13:44;;;;;;;10.95;5.64;;;;;;;;;;379230;105;1961099;-71
2021/07/03 00:14:50;;;;;;;9.72;5.23;;;;;;;;;;382015;105;1961960;-71
2021/07/03 00:15:55;;;;;;;11.13;5.21;;;;;;;;;;380861;105;1963047;-69
2021/07/03 00:17:01;;;;;;;12.45;5.40;;;;;;;;;;384624;105;1961930;-69
2021/07/03 00:18:07;;;;;;;8.97;5.66;;;;;;;;;;382347;105;1961953;-70
2021/07/03 00:19:12;;;;;;;8.59;4.99;;;;;;;;;;380912;105;1961817;-71
2021/07/03 00:20:18;;;;;;;8.93;5.36;;;;;;;;;;381764;105;1962019;-72
2021/07/03 00:21:23;;;;;;;9.11;4.67;;;;;;;;;;379635;105;1962016;-70
2021/07/03 00:22:34;;;;;;;9.63;4.87;;;;;;;;;;402623;101;1987028;-71
2021/07/03 00:23:41;;;;;;;10.07;5.28;;;;;;;;;;378030;103;1962067;-70
2021/07/03 00:24:46;;;;;;;10.87;5.39;;;;;;;;;;373191;105;1961932;-71
2021/07/03 00:25:52;;;;;;;8.16;4.68;;;;;;;;;;373206;105;1964023;-71
2021/07/03 00:26:57;;;;;;;9.74;4.61;;;;;;;;;;375842;105;1963034;-71
2021/07/03 00:28:03;;;;;;;11.28;5.02;;;;;;;;;;371655;107;1962998;-73
2021/07/03 00:29:14;;;;;;;9.54;4.73;;;;;;;;;;375487;103;2078656;-71
2021/07/03 00:30:20;;;;;;;8.47;4.88;;;;;;;;;;328403;105;2169975;-71
2021/07/03 00:31:25;;;;;;;7.66;4.59;;;;;;;;;;372810;106;1961933;-71
2021/07/03 00:32:31;;;;;;;10.11;5.05;;;;;;;;;;372024;105;1962033;-72
2021/07/03 00:33:42;;;;;;;8.66;4.56;;;;;;;;;;384759;106;1986006;-69
2021/07/03 00:34:47;;;;;;;7.31;3.99;;;;;;;;;;363126;109;1964879;-72
2021/07/03 00:35:58;;;;;;;6.49;3.54;;;;;;;;;;392913;104;1985989;-72
2021/07/03 00:37:04;;;;;;;8.87;3.58;;;;;;;;;;373646;107;1970825;-71
2021/07/03 00:38:09;;;;;;;8.08;3.42;;;;;;;;;;378526;107;1962078;-69
2021/07/03 00:39:15;;;;;;;7.02;3.32;;;;;;;;;;375295;108;1963035;-71
2021/07/03 00:40:28;;;;;;;10.74;3.99;;;;;;;;;;380085;108;1986031;-70
2021/07/03 00:41:33;;;;;;;7.81;3.36;;;;;;;;;;325457;112;2613984;-72
2021/07/03 00:42:39;;;;;;;7.63;3.23;;;;;;;;;;305941;112;2245028;-69
2021/07/03 00:43:45;;;;;;;9.05;3.59;;;;;;;;;;358727;109;1962092;-71
2021/07/03 00:44:50;;;;;;;7.21;3.15;;;;;;;;;;359034;111;1962055;-71
2021/07/03 00:45:55;;;;;;;6.88;2.94;;;;;;;;;;354119;109;1961910;-69
2021/07/03 00:47:01;;;;;;;7.51;2.86;;;;;;;;;;358044;109;1962019;-71
2021/07/03 00:48:07;;;;;;;9.45;3.03;;;;;;;;;;367426;109;1961922;-72
2021/07/03 00:49:12;;;;;;;8.58;3.68;;;;;;;;;;359578;111;1961949;-72
2021/07/03 00:50:18;;;;;;;5.69;2.80;;;;;;;;;;362353;109;1962081;-72
2021/07/03 00:51:24;;;;;;;6.24;3.33;;;;;;;;;;361205;111;1962004;-71
2021/07/03 00:52:39;;;;;;;7.49;2.78;;;;;;;;;;382122;106;1986082;-71
2021/07/03 00:53:46;;;;;;;6.58;2.96;;;;;;;;;;364554;110;1962192;-72
2021/07/03 00:54:51;;;;;;;7.83;2.99;;;;;;;;;;359366;112;1962010;-71
2021/07/03 00:55:59;;;;;;;5.02;2.36;;;;;;;;;;300081;112;2286665;-71
2021/07/03 00:57:05;;;;;;;7.18;3.10;;;;;;;;;;361419;111;1961967;-71
2021/07/03 00:58:11;;;;;;;7.19;2.68;;;;;;;;;;360831;112;1963848;-71
2021/07/03 00:59:16;;;;;;;8.91;3.49;;;;;;;;;;357224;112;1962925;-70
2021/07/03 01:00:25;;;;;;;8.77;3.31;;;;;;;;;;313531;111;2860019;-72
2021/07/03 01:01:31;;;;;;;6.52;3.19;;;;;;;;;;358469;111;1962087;-72
2021/07/03 01:02:36;;;;;;;8.86;3.27;;;;;;;;;;359156;111;1962036;-71
2021/07/03 01:03:42;;;;;;;8.63;3.76;;;;;;;;;;358107;113;1961909;-71
2021/07/03 01:04:47;;;;;;;6.83;3.36;;;;;;;;;;355441;111;1962073;-72
2021/07/03 01:05:54;;;;;;;8.93;3.51;;;;;;;;;;361204;111;1961963;-71
2021/07/03 01:06:59;;;;;;;6.31;3.16;;;;;;;;;;359225;112;1961888;-71
2021/07/03 01:08:06;;;;;;;11.21;3.99;;;;;;;;;;360014;112;1962945;-71
2021/07/03 01:09:12;;;;;;;9.99;3.34;;;;;;;;;;318057;111;2117955;-69
2021/07/03 01:10:26;;;;;;;7.17;3.74;;;;;;;;;;391260;104;2072095;-72
2021/07/03 01:11:43;;;;;;;8.12;3.69;;;;;;;;;;326985;106;2884991;-71
2021/07/03 01:12:49;;;;;;;6.65;3.69;;;;;;;;;;308229;105;2326884;-71
2021/07/03 01:13:55;;;;;;;8.37;3.72;;;;;;;;;;373725;105;1960758;-71
2021/07/03 01:15:06;;;;;;;10.68;3.61;;;;;;;;;;397984;103;1984638;-71
2021/07/03 01:16:14;;;;;;;8.82;3.47;;;;;;;;;;379329;105;1962847;-71
2021/07/03 01:17:19;;;;;;;7.37;3.47;;;;;;;;;;366473;107;2934004;-71
2021/07/03 01:18:24;;;;;;;7.61;3.26;;;;;;;;;;373918;107;1962955;-70
2021/07/03 01:19:31;;;;;;;10.02;3.22;;;;;;;;;;317566;109;2892903;-71
2021/07/03 01:20:37;;;;;;;10.07;4.00;;;;;;;;;;364523;111;1961969;-71
2021/07/03 01:21:49;;;;;;;6.42;3.36;;;;;;;;;;365428;111;1961971;-71
2021/07/03 01:22:58;;;;;;;7.71;3.41;;;;;;;;;;362714;111;1961986;-71
2021/07/03 01:24:03;;;;;;;8.60;3.53;;;;;;;;;;363303;111;1962005;-71
2021/07/03 01:25:11;;;;;;;9.18;3.95;;;;;;;;;;363255;109;1961972;-72
2021/07/03 01:26:23;;;;;;;8.12;3.32;;;;;;;;;;347600;104;2465909;-72
2021/07/03 01:27:28;;;;;;;9.08;4.28;;;;;;;;;;308523;106;2424064;-71
2021/07/03 01:28:34;;;;;;;8.55;3.38;;;;;;;;;;344577;107;1992463;-71
2021/07/03 01:29:45;;;;;;;9.55;3.94;;;;;;;;;;387949;106;2074875;-71
2021/07/03 01:30:52;;;;;;;7.02;3.52;;;;;;;;;;372800;107;1963020;-71
2021/07/03 01:31:58;;;;;;;9.46;4.09;;;;;;;;;;373027;107;1961953;-72
2021/07/03 01:33:04;;;;;;;7.07;3.73;;;;;;;;;;371776;105;1961960;-71
2021/07/03 01:34:10;;;;;;;8.56;4.07;;;;;;;;;;367655;109;1961962;-71
2021/07/03 01:35:16;;;;;;;8.79;3.74;;;;;;;;;;326531;107;2779033;-71
2021/07/03 01:36:22;;;;;;;11.43;4.21;;;;;;;;;;367894;108;1963925;-71
2021/07/03 01:37:29;;;;;;;8.91;4.54;;;;;;;;;;366957;109;1961837;-71
2021/07/03 01:38:36;;;;;;;8.53;3.91;;;;;;;;;;368557;109;1962057;-71
2021/07/03 01:39:43;;;;;;;8.27;4.30;;;;;;;;;;371196;107;1961931;-72
2021/07/03 01:40:49;;;;;;;9.56;4.04;;;;;;;;;;371267;109;1961881;-71
2021/07/03 01:41:56;;;;;;;10.36;4.82;;;;;;;;;;368833;109;1961988;-72
2021/07/03 01:43:01;;;;;;;9.06;4.20;;;;;;;;;;372617;107;1960867;-71
2021/07/03 01:44:06;;;;;;;11.01;4.52;;;;;;;;;;370391;109;1960926;-71
2021/07/03 01:45:11;;;;;;;10.48;4.38;;;;;;;;;;368865;109;1961919;-68
2021/07/03 01:46:17;;;;;;;8.63;4.63;;;;;;;;;;369453;109;1962000;-70
2021/07/03 01:47:22;;;;;;;11.74;5.13;;;;;;;;;;370205;108;1961944;-72
2021/07/03 01:48:30;;;;;;;11.10;5.06;;;;;;;;;;368991;109;1962088;-71
2021/07/03 01:49:43;;;;;;;12.22;5.07;;;;;;;;;;397848;104;1985985;-71
2021/07/03 01:50:49;;;;;;;11.58;4.49;;;;;;;;;;379257;105;1961957;-72
2021/07/03 01:51:55;;;;;;;9.68;4.59;;;;;;;;;;382788;105;1963771;-72
2021/07/03 01:53:01;;;;;;;10.91;5.14;;;;;;;;;;348172;105;1984858;-71
2021/07/03 01:54:07;;;;;;;13.40;4.91;;;;;;;;;;375466;107;1962025;-71
2021/07/03 01:55:13;;;;;;;11.82;4.79;;;;;;;;;;376273;107;1961999;-71
2021/07/03 01:56:19;;;;;;;10.39;5.06;;;;;;;;;;378286;107;1963047;-71
2021/07/03 01:57:23;;;;;;;11.07;5.53;;;;;;;;;;374523;107;1961898;-70
2021/07/03 01:58:39;;;;;;;10.76;4.65;;;;;;;;;;376046;107;1961982;-70
2021/07/03 01:59:47;;;;;;;11.87;4.72;;;;;;;;;;376291;107;1961916;-71
2021/07/03 02:00:55;;;;;;;10.41;4.46;;;;;;;;;;341575;106;2567957;-72
2021/07/03 02:02:01;;;;;;;12.25;5.51;;;;;;;;;;372151;107;1961908;-71
2021/07/03 02:03:13;;;;;;;12.06;4.79;;;;;;;;;;394735;104;1961958;-71
2021/07/03 02:04:24;;;;;;;9.90;5.42;;;;;;;;;;370558;108;1962048;-71
2021/07/03 02:05:30;;;;;;;11.75;6.01;;;;;;;;;;335861;108;2620989;-71
2021/07/03 02:06:41;;;;;;;11.74;5.54;;;;;;;;;;384532;106;2070934;-71
2021/07/03 02:07:47;;;;;;;11.34;5.43;;;;;;;;;;367400;109;1962054;-70
2021/07/03 02:08:52;;;;;;;11.83;5.99;;;;;;;;;;359222;110;1961926;-69
2021/07/03 02:09:57;;;;;;;10.92;6.30;;;;;;;;;;356252;112;1962080;-71
2021/07/03 02:11:03;;;;;;;11.64;6.08;;;;;;;;;;355015;113;1962901;-69
2021/07/03 02:12:08;;;;;;;11.96;6.37;;;;;;;;;;356778;112;1962066;-71
2021/07/03 02:13:15;;;;;;;13.10;5.51;;;;;;;;;;355706;113;1962085;-70
2021/07/03 02:14:20;;;;;;;15.95;5.91;;;;;;;;;;357059;112;1962007;-70
2021/07/03 02:15:32;;;;;;;12.88;6.53;;;;;;;;;;393334;103;1987043;-70
2021/07/03 02:16:39;;;;;;;13.96;6.62;;;;;;;;;;374265;107;1962001;-70
2021/07/03 02:17:45;;;;;;;13.48;5.70;;;;;;;;;;370618;109;1961849;-71
2021/07/03 02:18:52;;;;;;;12.84;5.58;;;;;;;;;;376134;106;1962066;-69
2021/07/03 02:19:59;;;;;;;10.97;5.48;;;;;;;;;;369060;106;1962007;-69
2021/07/03 02:21:12;;;;;;;15.66;5.64;;;;;;;;;;394587;103;1964985;-71
2021/07/03 02:22:17;;;;;;;13.19;6.99;;;;;;;;;;374238;107;1963026;-71
2021/07/03 02:23:25;;;;;;;12.28;6.15;;;;;;;;;;331530;105;2773065;-70
2021/07/03 02:24:32;;;;;;;12.07;6.14;;;;;;;;;;377019;105;1962051;-70
2021/07/03 02:25:46;;;;;;;12.38;5.95;;;;;;;;;;394073;103;1986068;-70
2021/07/03 02:26:52;;;;;;;12.33;6.54;;;;;;;;;;376903;107;1969962;-70
2021/07/03 02:27:58;;;;;;;11.54;5.57;;;;;;;;;;376091;107;1963001;-71
2021/07/03 02:29:09;;;;;;;8.69;5.62;;;;;;;;;;387399;104;1986957;-71
2021/07/03 02:30:16;;;;;;;12.06;6.60;;;;;;;;;;368897;107;1962019;-71
2021/07/03 02:31:22;;;;;;;11.61;6.13;;;;;;;;;;329022;108;2714960;-71
2021/07/03 02:32:29;;;;;;;13.26;6.10;;;;;;;;;;367975;109;1962017;-70
2021/07/03 02:33:35;;;;;;;11.96;6.46;;;;;;;;;;370241;107;1962033;-71
2021/07/03 02:34:46;;;;;;;12.07;6.37;;;;;;;;;;396767;103;1987013;-70
2021/07/03 02:35:51;;;;;;;11.11;6.31;;;;;;;;;;378555;105;1962019;-69
2021/07/03 02:36:57;;;;;;;11.43;7.03;;;;;;;;;;382537;105;1962010;-69
2021/07/03 02:38:02;;;;;;;12.57;6.59;;;;;;;;;;379346;105;1961927;-71
2021/07/03 02:39:07;;;;;;;13.51;7.06;;;;;;;;;;372282;106;1960767;-70
2021/07/03 02:40:16;;;;;;;12.04;7.26;;;;;;;;;;334300;104;2075784;-70
2021/07/03 02:41:22;;;;;;;13.34;6.97;;;;;;;;;;381460;104;1960774;-71
2021/07/03 02:42:27;;;;;;;10.19;6.71;;;;;;;;;;376208;106;1960790;-71
2021/07/03 02:43:32;;;;;;;11.51;6.83;;;;;;;;;;375943;105;1961003;-70
2021/07/03 02:44:39;;;;;;;12.24;6.77;;;;;;;;;;374304;105;1961980;-71
2021/07/03 02:45:46;;;;;;;11.20;7.39;;;;;;;;;;371051;107;1962933;-70
2021/07/03 02:46:51;;;;;;;12.57;7.12;;;;;;;;;;368891;107;1961892;-71
2021/07/03 02:48:03;;;;;;;12.41;7.11;;;;;;;;;;382883;101;1986900;-72
2021/07/03 02:49:08;;;;;;;12.09;7.78;;;;;;;;;;359039;103;1970019;-71
2021/07/03 02:50:16;;;;;;;10.82;6.91;;;;;;;;;;384633;104;1963003;-71
2021/07/03 02:51:21;;;;;;;11.78;7.68;;;;;;;;;;383987;105;1961891;-71
2021/07/03 02:52:26;;;;;;;11.56;7.43;;;;;;;;;;383129;104;1964002;-71
2021/07/03 02:53:32;;;;;;;10.91;6.99;;;;;;;;;;381473;105;1960883;-71
2021/07/03 02:54:37;;;;;;;11.43;7.69;;;;;;;;;;382981;104;1962031;-69
2021/07/03 02:55:49;;;;;;;10.98;6.67;;;;;;;;;;392581;104;1987983;-71
2021/07/03 02:56:57;;;;;;;13.47;7.50;;;;;;;;;;332224;106;2778017;-70
2021/07/03 02:58:02;;;;;;;12.08;7.33;;;;;;;;;;377604;106;1961923;-71
2021/07/03 02:59:08;;;;;;;11.82;7.54;;;;;;;;;;378786;106;1962030;-70
2021/07/03 03:00:15;;;;;;;11.35;7.28;;;;;;;;;;381839;106;1961978;-69
2021/07/03 03:01:22;;;;;;;15.31;7.68;;;;;;;;;;361685;106;1961955;-69
2021/07/03 03:02:28;;;;;;;11.71;7.21;;;;;;;;;;379225;106;1961959;-70
2021/07/03 03:03:33;;;;;;;12.89;7.62;;;;;;;;;;378786;106;1961923;-70
2021/07/03 03:04:39;;;;;;;15.64;7.82;;;;;;;;;;380612;106;1964796;-71
2021/07/03 03:05:44;;;;;;;10.82;7.41;;;;;;;;;;379450;106;1962025;-70
2021/07/03 03:06:49;;;;;;;15.03;8.14;;;;;;;;;;378378;105;1960960;-70
2021/07/03 03:07:54;;;;;;;12.84;7.53;;;;;;;;;;378144;106;1963011;-70
2021/07/03 03:09:00;;;;;;;11.69;7.31;;;;;;;;;;379178;106;1963013;-70
2021/07/03 03:10:12;;;;;;;11.12;7.46;;;;;;;;;;393972;104;1987064;-69
2021/07/03 03:11:18;;;;;;;10.51;6.77;;;;;;;;;;376675;106;1961982;-71
2021/07/03 03:12:25;;;;;;;12.05;6.44;;;;;;;;;;358340;106;2853992;-71
2021/07/03 03:13:30;;;;;;;10.01;6.34;;;;;;;;;;306290;107;2336906;-70
2021/07/03 03:14:35;;;;;;;10.60;6.26;;;;;;;;;;336810;110;1980002;-71
2021/07/03 03:15:41;;;;;;;9.51;6.35;;;;;;;;;;298673;112;2270168;-71
2021/07/03 03:16:47;;;;;;;10.74;6.19;;;;;;;;;;366893;107;1962945;-70
2021/07/03 03:18:18;;;;;;;10.14;6.32;;;;;;;;;;414591;99;1986022;-70
2021/07/03 03:19:23;;;;;;;9.54;6.05;;;;;;;;;;394075;101;1961955;-70
2021/07/03 03:20:36;;;;;;;10.53;6.32;;;;;;;;;;387621;106;1985936;-72
2021/07/03 03:21:42;;;;;;;9.30;5.77;;;;;;;;;;322738;112;2492895;-72
2021/07/03 03:23:05;;;;;;;9.08;5.63;;;;;;;;;;363369;110;1962050;-72
2021/07/03 03:24:10;;;;;;;9.23;6.19;;;;;;;;;;365686;108;1963021;-71
2021/07/03 03:25:15;;;;;;;9.54;6.09;;;;;;;;;;372971;108;1961984;-70
2021/07/03 03:26:37;;;;;;;10.41;6.15;;;;;;;;;;370160;108;1963058;-71
2021/07/03 03:28:34;;;;;;;9.16;5.55;;;;;;;;;;370872;108;1962071;-71
2021/07/03 03:30:32;;;;;;;8.84;5.46;;;;;;;;;;350292;114;1962001;-72
2021/07/03 03:32:18;;;;;;;9.15;5.63;;;;;;;;;;371236;108;1961985;-71
2021/07/03 03:33:24;;;;;;;10.59;5.78;;;;;;;;;;368688;108;1961986;-71
2021/07/03 03:34:36;;;;;;;10.41;5.53;;;;;;;;;;366746;101;2051923;-71
2021/07/03 03:35:41;;;;;;;8.23;5.16;;;;;;;;;;337208;103;2099035;-71
2021/07/03 03:36:47;;;;;;;8.66;5.61;;;;;;;;;;362926;105;1961914;-71
2021/07/03 03:37:52;;;;;;;8.78;5.55;;;;;;;;;;380893;104;1964866;-70
2021/07/03 03:39:00;;;;;;;9.25;5.74;;;;;;;;;;383185;103;1963909;-71
2021/07/03 03:40:07;;;;;;;8.69;5.46;;;;;;;;;;385983;103;1961980;-71
2021/07/03 03:41:13;;;;;;;7.86;5.11;;;;;;;;;;326321;103;2231955;-72
2021/07/03 03:42:18;;;;;;;9.20;5.01;;;;;;;;;;331861;103;2185983;-72
2021/07/03 03:43:23;;;;;;;7.75;4.74;;;;;;;;;;321579;103;2282627;-72
2021/07/03 03:44:29;;;;;;;7.84;5.05;;;;;;;;;;315330;103;2327995;-70
2021/07/03 03:45:34;;;;;;;9.27;5.28;;;;;;;;;;373341;103;1961900;-71
2021/07/03 03:46:42;;;;;;;7.51;4.83;;;;;;;;;;384915;103;1961972;-72
2021/07/03 03:47:47;;;;;;;9.30;5.17;;;;;;;;;;385920;103;1963012;-70
2021/07/03 03:48:54;;;;;;;9.43;4.99;;;;;;;;;;385115;103;1963913;-70
2021/07/03 03:50:06;;;;;;;9.06;4.88;;;;;;;;;;357842;105;1994967;-70
2021/07/03 03:51:11;;;;;;;14.34;8.13;;;;;;;;;;367886;108;1961987;-71
2021/07/03 03:52:17;;;;;;;9.94;5.08;;;;;;;;;;360589;110;1962016;-71
2021/07/03 03:53:25;;;;;;;8.52;5.30;;;;;;;;;;361672;109;1961860;-72
2021/07/03 03:54:30;;;;;;;8.34;5.44;;;;;;;;;;369324;107;1962942;-72
2021/07/03 03:55:36;;;;;;;7.59;4.78;;;;;;;;;;368886;109;1962874;-71
2021/07/03 03:56:43;;;;;;;8.24;5.05;;;;;;;;;;353130;109;1962011;-70
2021/07/03 03:57:48;;;;;;;9.01;5.03;;;;;;;;;;347466;109;1962062;-71
2021/07/03 03:58:55;;;;;;;8.88;5.04;;;;;;;;;;371017;109;1961990;-71
2021/07/03 04:00:04;;;;;;;9.41;5.64;;;;;;;;;;368961;109;1962033;-71
2021/07/03 04:01:10;;;;;;;8.62;4.92;;;;;;;;;;369514;105;1960629;-70
2021/07/03 04:02:17;;;;;;;7.55;4.28;;;;;;;;;;369432;108;1961903;-71
2021/07/03 04:03:22;;;;;;;7.81;4.68;;;;;;;;;;368599;108;1962003;-71
2021/07/03 04:04:27;;;;;;;7.60;4.63;;;;;;;;;;363341;110;1962059;-72
2021/07/03 04:05:33;;;;;;;6.84;3.86;;;;;;;;;;363369;110;1960998;-71
2021/07/03 04:06:39;;;;;;;6.27;4.23;;;;;;;;;;355741;113;1960967;-73
2021/07/03 04:07:51;;;;;;;8.14;5.09;;;;;;;;;;358057;103;2093841;-71
2021/07/03 04:08:56;;;;;;;9.45;4.84;;;;;;;;;;329919;106;2132086;-72
2021/07/03 04:10:10;;;;;;;8.64;5.62;;;;;;;;;;391478;104;1988006;-72
2021/07/03 04:11:16;;;;;;;9.57;5.89;;;;;;;;;;375108;105;1963094;-70
2021/07/03 04:12:21;;;;;;;11.92;6.25;;;;;;;;;;375226;105;1962054;-72
2021/07/03 04:13:26;;;;;;;12.47;8.46;;;;;;;;;;372731;106;1961918;-72
2021/07/03 04:14:32;;;;;;;9.84;6.01;;;;;;;;;;375998;106;1964986;-72
2021/07/03 04:15:37;;;;;;;8.29;5.46;;;;;;;;;;377086;106;1962909;-71
2021/07/03 04:16:44;;;;;;;9.61;5.48;;;;;;;;;;361866;106;1960909;-71
2021/07/03 04:17:49;;;;;;;9.14;5.53;;;;;;;;;;333388;106;2117046;-71
2021/07/03 04:18:54;;;;;;;8.96;5.46;;;;;;;;;;353641;106;1961960;-71
2021/07/03 04:20:00;;;;;;;10.54;6.24;;;;;;;;;;321173;106;2229984;-71
2021/07/03 04:21:05;;;;;;;8.88;5.18;;;;;;;;;;328851;106;2504065;-72
2021/07/03 04:22:10;;;;;;;8.93;5.82;;;;;;;;;;317080;106;2228992;-72
2021/07/03 04:23:16;;;;;;;8.73;5.44;;;;;;;;;;304354;106;2431950;-73
2021/07/03 04:24:27;;;;;;;10.96;6.14;;;;;;;;;;389690;104;2071046;-73
2021/07/03 04:25:32;;;;;;;8.28;5.73;;;;;;;;;;376598;105;1963050;-72
2021/07/03 04:26:37;;;;;;;10.34;5.72;;;;;;;;;;371607;108;1960853;-72
2021/07/03 04:27:43;;;;;;;7.65;5.09;;;;;;;;;;357072;108;1961929;-72
2021/07/03 04:28:48;;;;;;;8.83;4.97;;;;;;;;;;368671;107;1960737;-72
2021/07/03 04:29:53;;;;;;;7.07;4.39;;;;;;;;;;347024;107;1962980;-72
2021/07/03 04:30:58;;;;;;;7.36;5.09;;;;;;;;;;352981;109;1962041;-72
2021/07/03 04:32:04;;;;;;;8.90;5.75;;;;;;;;;;322469;107;2152319;-72
2021/07/03 04:33:09;;;;;;;9.29;5.28;;;;;;;;;;357271;109;1962053;-71
2021/07/03 04:34:15;;;;;;;8.35;5.25;;;;;;;;;;363458;107;1961973;-71
2021/07/03 04:35:20;;;;;;;9.03;4.96;;;;;;;;;;346130;109;1962022;-71
2021/07/03 04:36:27;;;;;;;11.86;5.56;;;;;;;;;;373684;107;1962930;-72
2021/07/03 04:37:33;;;;;;;10.21;5.47;;;;;;;;;;368019;109;1962034;-71
2021/07/03 04:38:45;;;;;;;7.33;4.76;;;;;;;;;;385061;106;1986965;-71
2021/07/03 04:39:50;;;;;;;9.65;4.46;;;;;;;;;;362620;110;1962994;-70
2021/07/03 04:40:55;;;;;;;8.94;4.77;;;;;;;;;;360522;111;1962068;-70
2021/07/03 04:42:01;;;;;;;7.02;4.61;;;;;;;;;;358215;111;1961998;-71
2021/07/03 04:43:06;;;;;;;8.36;4.37;;;;;;;;;;359259;111;1961938;-70
2021/07/03 04:44:18;;;;;;;8.19;4.50;;;;;;;;;;351843;104;2138969;-71
2021/07/03 04:45:23;;;;;;;7.83;4.66;;;;;;;;;;314084;106;2443035;-72
2021/07/03 04:46:28;;;;;;;8.25;4.54;;;;;;;;;;299188;107;2411014;-72
2021/07/03 04:47:34;;;;;;;7.16;4.70;;;;;;;;;;361609;106;1962027;-71
2021/07/03 04:48:40;;;;;;;10.61;5.57;;;;;;;;;;372024;106;1962024;-71
2021/07/03 04:49:45;;;;;;;11.35;4.82;;;;;;;;;;354778;105;1962001;-70
2021/07/03 04:50:50;;;;;;;8.11;4.62;;;;;;;;;;319797;107;2216020;-70
2021/07/03 04:51:55;;;;;;;8.60;4.78;;;;;;;;;;333932;105;2529970;-71
2021/07/03 04:53:00;;;;;;;7.18;4.36;;;;;;;;;;329993;107;2134059;-71
2021/07/03 04:54:06;;;;;;;7.89;4.96;;;;;;;;;;331056;106;2494012;-71
2021/07/03 04:55:11;;;;;;;8.39;4.64;;;;;;;;;;309286;107;2310008;-70
2021/07/03 04:56:17;;;;;;;9.39;5.23;;;;;;;;;;370923;107;1963048;-71
2021/07/03 04:57:22;;;;;;;10.60;4.65;;;;;;;;;;370971;107;1963034;-71
2021/07/03 04:58:40;;;;;;;10.27;5.48;;;;;;;;;;386639;106;1986067;-71
2021/07/03 04:59:45;;;;;;;10.52;5.19;;;;;;;;;;371149;108;1961846;-71
2021/07/03 05:00:51;;;;;;;7.27;4.47;;;;;;;;;;369789;108;1962089;-71
2021/07/03 05:01:56;;;;;;;6.40;4.13;;;;;;;;;;369280;108;1962015;-72
2021/07/03 05:03:01;;;;;;;11.04;5.99;;;;;;;;;;365565;110;1962056;-72
2021/07/03 05:04:06;;;;;;;9.03;5.05;;;;;;;;;;365850;110;1963003;-71
2021/07/03 05:05:11;;;;;;;9.24;5.66;;;;;;;;;;365047;109;1961986;-72
2021/07/03 05:06:17;;;;;;;8.04;4.83;;;;;;;;;;367671;109;1962039;-72
2021/07/03 05:07:24;;;;;;;7.36;4.39;;;;;;;;;;368251;108;1962069;-71
2021/07/03 05:08:36;;;;;;;9.03;5.04;;;;;;;;;;338576;106;2187022;-71
2021/07/03 05:09:41;;;;;;;6.76;4.67;;;;;;;;;;298251;109;2317954;-72
2021/07/03 05:10:47;;;;;;;9.42;5.00;;;;;;;;;;307068;113;2223955;-71
2021/07/03 05:11:52;;;;;;;6.26;4.21;;;;;;;;;;354264;112;1961966;-72
2021/07/03 05:12:57;;;;;;;8.69;5.09;;;;;;;;;;335214;110;1961937;-71
2021/07/03 05:14:03;;;;;;;8.24;4.52;;;;;;;;;;297605;112;2324487;-71
2021/07/03 05:15:14;;;;;;;9.08;5.68;;;;;;;;;;390269;104;2071959;-70
2021/07/03 05:16:19;;;;;;;8.13;5.31;;;;;;;;;;369847;108;1963993;-72
2021/07/03 05:17:25;;;;;;;8.92;5.11;;;;;;;;;;374919;106;1962207;-71
2021/07/03 05:18:30;;;;;;;8.31;4.97;;;;;;;;;;374163;106;1960947;-71
2021/07/03 05:19:35;;;;;;;8.22;5.51;;;;;;;;;;369910;108;1963994;-72
2021/07/03 05:20:41;;;;;;;9.22;5.56;;;;;;;;;;368796;107;1962080;-71
2021/07/03 05:21:46;;;;;;;9.93;6.27;;;;;;;;;;367911;108;1965035;-70
2021/07/03 05:22:51;;;;;;;10.84;5.70;;;;;;;;;;365648;109;1961948;-71
2021/07/03 05:23:56;;;;;;;10.34;5.80;;;;;;;;;;355373;108;1961949;-70
2021/07/03 05:25:01;;;;;;;9.91;5.08;;;;;;;;;;323636;107;2147924;-71
2021/07/03 05:26:07;;;;;;;8.68;5.11;;;;;;;;;;293760;109;2420964;-70
2021/07/03 05:27:12;;;;;;;8.91;5.19;;;;;;;;;;309657;109;2291750;-71
2021/07/03 05:28:18;;;;;;;11.41;5.23;;;;;;;;;;314591;112;2519070;-71
2021/07/03 05:29:23;;;;;;;10.13;5.51;;;;;;;;;;319172;108;2534007;-70
2021/07/03 05:30:29;;;;;;;11.31;6.55;;;;;;;;;;331932;108;2053022;-72
2021/07/03 05:31:34;;;;;;;8.53;4.98;;;;;;;;;;326247;108;2121864;-71
2021/07/03 05:32:39;;;;;;;9.58;5.72;;;;;;;;;;300833;108;2352990;-72
2021/07/03 05:33:51;;;;;;;8.77;5.11;;;;;;;;;;390153;104;1985904;-71
2021/07/03 05:34:56;;;;;;;9.30;5.08;;;;;;;;;;370519;107;1970934;-71
2021/07/03 05:36:02;;;;;;;8.94;5.32;;;;;;;;;;352802;108;1962953;-71
2021/07/03 05:37:08;;;;;;;8.73;5.18;;;;;;;;;;370496;107;1961066;-72
2021/07/03 05:38:13;;;;;;;8.29;5.68;;;;;;;;;;371548;107;1961937;-71
2021/07/03 05:39:18;;;;;;;8.01;5.79;;;;;;;;;;370668;107;1962014;-71
2021/07/03 05:40:23;;;;;;;8.83;5.24;;;;;;;;;;371342;108;1961883;-72
2021/07/03 05:41:28;;;;;;;8.03;5.18;;;;;;;;;;366897;107;1961988;-73
2021/07/03 05:42:33;;;;;;;7.98;5.22;;;;;;;;;;345127;109;1961989;-72
2021/07/03 05:43:45;;;;;;;7.56;5.03;;;;;;;;;;393354;103;1987025;-73
2021/07/03 05:44:50;;;;;;;8.42;5.21;;;;;;;;;;380060;106;1961987;-72
2021/07/03 05:45:55;;;;;;;8.82;5.29;;;;;;;;;;380296;106;1962041;-72
2021/07/03 05:47:00;;;;;;;10.28;5.42;;;;;;;;;;374207;106;1961984;-72
2021/07/03 05:48:05;;;;;;;11.50;5.53;;;;;;;;;;341388;106;2096053;-71
2021/07/03 05:49:11;;;;;;;9.84;6.01;;;;;;;;;;310197;106;2469995;-74
2021/07/03 05:50:18;;;;;;;10.87;5.63;;;;;;;;;;379850;106;1962013;-72
2021/07/03 05:51:27;;;;;;;9.98;5.27;;;;;;;;;;379642;106;1962372;-71
2021/07/03 05:52:33;;;;;;;8.86;5.68;;;;;;;;;;370825;106;1962945;-72
2021/07/03 05:53:38;;;;;;;8.17;5.46;;;;;;;;;;364599;106;1961035;-72
2021/07/03 05:54:43;;;;;;;8.91;4.98;;;;;;;;;;337562;106;2129030;-72
2021/07/03 05:55:48;;;;;;;8.76;5.37;;;;;;;;;;308359;106;2481050;-72
2021/07/03 05:56:54;;;;;;;9.19;5.51;;;;;;;;;;304046;108;2396983;-71
2021/07/03 05:57:59;;;;;;;9.62;6.41;;;;;;;;;;342411;106;2014933;-71
2021/07/03 05:59:12;;;;;;;9.10;5.63;;;;;;;;;;385631;106;1986003;-72
2021/07/03 06:00:18;;;;;;;8.84;5.47;;;;;;;;;;357805;113;1967752;-72
2021/07/03 06:01:23;;;;;;;10.62;5.34;;;;;;;;;;360354;111;1961946;-73
2021/07/03 06:02:29;;;;;;;10.78;5.51;;;;;;;;;;370960;107;1962007;-71
2021/07/03 06:03:34;;;;;;;15.08;5.76;;;;;;;;;;369551;109;1961993;-70
2021/07/03 06:04:39;;;;;;;11.65;6.90;;;;;;;;;;370114;109;1961987;-72
2021/07/03 06:05:44;;;;;;;10.09;5.64;;;;;;;;;;368361;107;1962012;-72
2021/07/03 06:06:50;;;;;;;9.70;5.58;;;;;;;;;;368542;108;1962935;-72
2021/07/03 06:07:55;;;;;;;11.12;6.34;;;;;;;;;;365622;109;1960625;-72
2021/07/03 06:09:00;;;;;;;9.09;5.28;;;;;;;;;;369316;108;1962060;-72
2021/07/03 06:10:05;;;;;;;10.34;5.24;;;;;;;;;;366899;109;1962980;-71
2021/07/03 06:11:10;;;;;;;9.41;4.98;;;;;;;;;;364996;107;1962006;-71
2021/07/03 06:12:18;;;;;;;10.08;6.29;;;;;;;;;;335485;108;2069940;-71
2021/07/03 06:13:23;;;;;;;10.42;5.70;;;;;;;;;;369224;108;1961987;-71
2021/07/03 06:14:28;;;;;;;9.96;5.32;;;;;;;;;;368194;109;1961981;-71
2021/07/03 06:15:33;;;;;;;10.84;5.67;;;;;;;;;;368700;108;1962005;-72
2021/07/03 06:16:39;;;;;;;9.76;4.85;;;;;;;;;;368811;107;1963026;-73
2021/07/03 06:17:51;;;;;;;9.03;4.22;;;;;;;;;;393822;103;1986021;-71
2021/07/03 06:18:58;;;;;;;7.98;4.54;;;;;;;;;;367028;107;1969043;-69
2021/07/03 06:20:05;;;;;;;6.36;4.07;;;;;;;;;;352817;108;1961805;-70
2021/07/03 06:21:10;;;;;;;7.68;4.49;;;;;;;;;;368494;107;1962094;-70
2021/07/03 06:22:15;;;;;;;7.92;3.69;;;;;;;;;;366276;108;1961985;-70
2021/07/03 06:23:20;;;;;;;6.96;4.05;;;;;;;;;;319979;108;2235155;-70
2021/07/03 06:24:25;;;;;;;6.88;4.30;;;;;;;;;;301710;109;2404956;-69
2021/07/03 06:25:31;;;;;;;10.63;4.36;;;;;;;;;;308121;108;2523986;-69
2021/07/03 06:26:37;;;;;;;10.68;4.02;;;;;;;;;;369938;108;1962020;-69
2021/07/03 06:27:42;;;;;;;9.30;4.74;;;;;;;;;;367283;109;1961934;-68